createdAt,value
2017-11-10T00:02:24.479Z,61.37
2017-11-10T00:04:53.316Z,60.23
2017-11-10T00:07:21.338Z,63.10
2017-11-10T00:09:49.389Z,56.23
2017-11-10T00:12:17.330Z,52.60
2017-11-10T00:14:45.300Z,57.70
2017-11-10T00:17:13.235Z,49.90
2017-11-10T00:19:41.233Z,56.97
2017-11-10T00:22:09.258Z,54.00
2017-11-10T00:24:37.246Z,56.63
2017-11-10T00:27:05.196Z,52.50
2017-11-10T00:29:33.201Z,53.70
2017-11-10T00:32:01.406Z,54.53
2017-11-10T00:34:29.407Z,53.97
2017-11-10T00:36:57.559Z,57.23
2017-11-10T00:39:25.505Z,55.47
2017-11-10T00:41:53.474Z,57.07
2017-11-10T00:44:21.547Z,57.53
2017-11-10T00:46:49.547Z,52.47
2017-11-10T00:49:17.500Z,67.03
2017-11-10T00:51:45.453Z,57.17
2017-11-10T00:54:13.414Z,56.67
2017-11-10T00:56:41.346Z,61.17
2017-11-10T00:59:09.293Z,56.47
2017-11-10T01:01:40.189Z,56.23
2017-11-10T01:04:08.152Z,57.20
2017-11-10T01:06:36.121Z,57.63
2017-11-10T01:09:04.121Z,56.63
2017-11-10T01:11:32.087Z,54.20
2017-11-10T01:14:00.032Z,61.60
2017-11-10T01:16:28.119Z,53.60
2017-11-10T01:18:56.094Z,58.93
2017-11-10T01:21:24.656Z,58.43
2017-11-10T01:23:52.664Z,54.10
2017-11-10T01:26:20.641Z,58.97
2017-11-10T01:28:49.397Z,54.73
2017-11-10T01:31:17.353Z,60.60
2017-11-10T01:33:45.324Z,61.63
2017-11-10T01:36:13.365Z,55.90
2017-11-10T01:38:41.361Z,49.60
2017-11-10T01:41:09.921Z,57.40
2017-11-10T01:43:38.049Z,59.70
2017-11-10T01:46:06.027Z,49.03
2017-11-10T01:48:39.545Z,51.30
2017-11-10T01:51:07.529Z,59.73
2017-11-10T01:53:35.599Z,57.90
2017-11-10T01:56:03.613Z,52.37
2017-11-10T01:58:31.569Z,65.30
2017-11-10T02:00:59.568Z,58.30
2017-11-10T02:03:27.536Z,60.80
2017-11-10T02:05:55.510Z,54.73
2017-11-10T02:08:24.169Z,60.87
2017-11-10T02:10:52.138Z,57.63
2017-11-10T02:13:20.777Z,50.67
2017-11-10T02:15:48.770Z,56.40
2017-11-10T02:18:17.476Z,58.03
2017-11-10T02:20:45.495Z,63.77
2017-11-10T02:23:13.442Z,55.43
2017-11-10T02:25:41.570Z,61.27
2017-11-10T02:28:09.558Z,64.43
2017-11-10T02:30:37.534Z,59.00
2017-11-10T02:33:05.529Z,62.93
2017-11-10T02:35:33.506Z,63.63
2017-11-10T02:38:01.496Z,60.13
2017-11-10T02:40:29.572Z,63.60
2017-11-10T02:42:57.573Z,58.20
2017-11-10T02:45:26.707Z,58.00
2017-11-10T02:47:54.661Z,62.33
2017-11-10T02:50:22.611Z,56.40
2017-11-10T02:52:50.538Z,64.83
2017-11-10T02:55:18.544Z,60.20
2017-11-10T02:57:46.539Z,57.47
2017-11-10T03:00:14.556Z,61.43
2017-11-10T03:02:42.516Z,64.27
2017-11-10T03:05:10.455Z,59.90
2017-11-10T03:07:38.427Z,61.00
2017-11-10T03:10:06.403Z,64.97
2017-11-10T03:12:34.371Z,56.53
2017-11-10T03:15:02.371Z,55.70
2017-11-10T03:17:30.403Z,54.50
2017-11-10T03:19:58.416Z,64.63
2017-11-10T03:22:26.381Z,55.23
2017-11-10T03:24:55.211Z,56.90
2017-11-10T03:27:23.189Z,53.87
2017-11-10T03:29:51.171Z,62.90
2017-11-10T03:32:19.147Z,54.50
2017-11-10T03:34:47.147Z,53.50
2017-11-10T03:37:15.260Z,55.83
2017-11-10T03:39:43.248Z,48.00
2017-11-10T03:42:11.248Z,53.87
2017-11-10T03:44:39.238Z,50.50
2017-11-10T03:47:07.168Z,57.87
2017-11-10T03:49:35.230Z,49.33
2017-11-10T03:52:03.217Z,50.27
2017-11-10T03:54:31.177Z,52.40
2017-11-10T03:56:59.145Z,51.90
2017-11-10T03:59:27.293Z,46.30
2017-11-10T04:01:55.266Z,45.60
2017-11-10T04:04:23.234Z,59.37
2017-11-10T04:06:51.200Z,55.43
2017-11-10T04:09:19.274Z,56.17
2017-11-10T04:11:47.264Z,50.07
2017-11-10T04:14:15.474Z,46.40
2017-11-10T04:16:43.411Z,40.43
2017-11-10T04:19:12.029Z,52.20
2017-11-10T04:21:39.971Z,46.10
2017-11-10T04:24:07.931Z,47.23
2017-11-10T04:26:35.900Z,45.37
2017-11-10T04:29:03.839Z,43.97
2017-11-10T04:31:31.783Z,47.77
2017-11-10T04:33:59.738Z,42.53
2017-11-10T04:36:27.673Z,52.00
2017-11-10T04:38:55.645Z,46.93
2017-11-10T04:41:23.609Z,52.53
2017-11-10T04:43:51.563Z,42.87
2017-11-10T04:46:19.525Z,47.40
2017-11-10T04:48:47.467Z,52.23
2017-11-10T04:51:15.508Z,45.33
2017-11-10T04:53:43.714Z,47.07
2017-11-10T04:56:11.763Z,49.73
2017-11-10T04:58:39.731Z,52.83
2017-11-10T05:01:07.702Z,46.57
2017-11-10T05:03:35.671Z,42.87
2017-11-10T05:06:03.693Z,44.80
2017-11-10T05:08:31.686Z,46.93
2017-11-10T05:10:59.655Z,47.17
2017-11-10T05:13:28.468Z,41.53
2017-11-10T05:15:56.411Z,44.70
2017-11-10T05:18:24.412Z,47.30
2017-11-10T05:20:52.392Z,42.23
2017-11-10T05:23:21.182Z,41.70
2017-11-10T05:25:49.702Z,45.43
2017-11-10T05:28:17.693Z,41.50
2017-11-10T05:30:45.763Z,44.23
2017-11-10T05:33:13.702Z,44.73
2017-11-10T05:35:41.644Z,48.37
2017-11-10T05:38:09.663Z,45.87
2017-11-10T05:40:37.640Z,48.20
2017-11-10T05:43:05.614Z,43.13
2017-11-10T05:45:33.570Z,47.40
2017-11-10T05:48:01.546Z,48.87
2017-11-10T05:50:29.538Z,49.90
2017-11-10T05:52:57.463Z,53.70
2017-11-10T05:55:25.428Z,59.17
2017-11-10T05:57:53.499Z,58.53
2017-11-10T06:00:21.469Z,54.03
2017-11-10T06:02:49.451Z,51.10
2017-11-10T06:05:17.413Z,61.40
2017-11-10T06:07:45.508Z,58.20
2017-11-10T06:10:13.543Z,52.80
2017-11-10T06:12:41.568Z,66.67
2017-11-10T06:15:09.598Z,63.90
2017-11-10T06:17:37.578Z,56.27
2017-11-10T06:20:05.532Z,62.67
2017-11-10T06:22:33.514Z,57.20
2017-11-10T06:25:01.560Z,57.60
2017-11-10T06:27:30.518Z,57.37
2017-11-10T06:29:58.507Z,54.27
2017-11-10T06:32:26.548Z,49.83
2017-11-10T06:34:54.520Z,54.20
2017-11-10T06:37:22.528Z,46.00
2017-11-10T06:39:50.573Z,49.50
2017-11-10T06:42:19.489Z,56.80
2017-11-10T06:44:47.553Z,51.40
2017-11-10T06:47:15.623Z,46.40
2017-11-10T06:49:43.667Z,45.30
2017-11-10T06:52:12.563Z,48.37
2017-11-10T06:54:40.568Z,42.43
2017-11-10T06:57:08.947Z,46.43
2017-11-10T06:59:37.839Z,43.20
2017-11-10T07:02:05.803Z,43.27
2017-11-10T07:04:33.777Z,43.37
2017-11-10T07:07:01.740Z,37.10
2017-11-10T07:09:29.722Z,40.27
2017-11-10T07:11:57.682Z,41.63
2017-11-10T07:14:25.659Z,36.20
2017-11-10T07:16:53.684Z,35.00
2017-11-10T07:19:21.676Z,32.07
2017-11-10T07:21:49.645Z,31.27
2017-11-10T07:24:18.227Z,31.17
2017-11-10T07:26:46.278Z,31.97
2017-11-10T07:29:14.292Z,29.10
2017-11-10T07:31:42.325Z,27.93
2017-11-10T07:34:10.601Z,31.33
2017-11-10T07:36:38.569Z,34.53
2017-11-10T07:39:06.680Z,27.50
2017-11-10T07:41:34.677Z,31.97
2017-11-10T07:44:02.768Z,35.00
2017-11-10T07:46:30.719Z,31.87
2017-11-10T07:48:59.427Z,32.87
2017-11-10T07:51:28.357Z,35.00
2017-11-10T07:53:56.473Z,33.33
2017-11-10T07:56:24.419Z,36.50
2017-11-10T07:58:52.462Z,31.20
2017-11-10T08:01:20.527Z,37.17
2017-11-10T08:03:48.569Z,36.50
2017-11-10T08:06:16.557Z,34.87
2017-11-10T08:08:44.526Z,32.83
2017-11-10T08:11:12.461Z,34.10
2017-11-10T08:13:40.468Z,35.90
2017-11-10T08:16:08.536Z,34.17
2017-11-10T08:18:36.476Z,37.27
2017-11-10T08:21:04.418Z,36.63
2017-11-10T08:23:32.422Z,31.87
2017-11-10T08:26:00.459Z,40.00
2017-11-10T08:28:28.393Z,35.87
2017-11-10T08:30:56.357Z,34.47
2017-11-10T08:33:24.350Z,35.73
2017-11-10T08:35:52.393Z,38.23
2017-11-10T08:38:20.447Z,39.03
2017-11-10T08:40:48.546Z,35.50
2017-11-10T08:43:16.559Z,39.50
2017-11-10T08:45:44.765Z,40.90
2017-11-10T08:48:12.799Z,36.73
2017-11-10T08:50:40.980Z,40.33
2017-11-10T08:53:08.947Z,35.43
2017-11-10T08:55:36.976Z,35.50
2017-11-10T08:58:04.991Z,40.87
2017-11-10T09:00:33.037Z,38.23
2017-11-10T09:03:01.048Z,35.47
2017-11-10T09:05:29.215Z,37.00
2017-11-10T09:07:57.357Z,36.67
2017-11-10T09:10:25.360Z,36.30
2017-11-10T09:12:53.604Z,77.47
2017-11-10T09:15:21.940Z,38.73
2017-11-10T09:17:50.066Z,39.00
2017-11-10T09:20:18.056Z,39.53
2017-11-10T09:22:46.178Z,36.13
2017-11-10T09:25:14.206Z,35.50
2017-11-10T09:27:42.349Z,36.00
2017-11-10T09:30:17.651Z,34.37
2017-11-10T09:32:51.402Z,39.07
2017-11-10T09:35:25.166Z,36.40
2017-11-10T09:37:57.970Z,43.53
2017-11-10T09:40:29.476Z,41.83
2017-11-10T09:43:04.504Z,36.30
2017-11-10T09:48:41.838Z,38.57
2017-11-10T09:51:15.859Z,37.67
2017-11-10T09:53:59.675Z,39.50
2017-11-10T09:56:34.352Z,33.57
2017-11-10T09:59:20.658Z,32.40
2017-11-10T10:02:06.615Z,33.83
2017-11-10T10:04:39.323Z,41.30
2017-11-10T10:07:13.259Z,34.03
2017-11-10T10:09:47.019Z,32.50
2017-11-10T10:12:21.224Z,32.07
2017-11-10T10:14:54.912Z,33.33
2017-11-10T10:17:28.678Z,31.17
2017-11-10T10:20:02.520Z,31.77
2017-11-10T10:22:30.616Z,35.37
2017-11-10T10:24:58.740Z,30.97
2017-11-10T10:27:26.737Z,34.63
2017-11-10T10:29:54.810Z,46.77
2017-11-10T10:32:22.935Z,29.33
2017-11-10T10:34:50.928Z,29.17
2017-11-10T10:37:19.024Z,26.33
2017-11-10T10:39:47.416Z,34.70
2017-11-10T10:42:15.429Z,29.10
2017-11-10T10:44:43.374Z,31.60
2017-11-10T10:47:11.474Z,27.60
2017-11-10T10:49:39.518Z,23.83
2017-11-10T10:52:07.760Z,29.23
2017-11-10T10:54:35.832Z,26.83
2017-11-10T10:57:03.863Z,23.43
2017-11-10T10:59:31.909Z,29.07
2017-11-10T11:01:59.864Z,20.43
2017-11-10T11:04:27.888Z,22.20
2017-11-10T11:06:56.605Z,21.63
2017-11-10T11:09:24.610Z,18.00
2017-11-10T11:11:52.642Z,23.93
2017-11-10T11:14:20.656Z,26.53
2017-11-10T11:16:48.733Z,25.50
2017-11-10T11:19:16.716Z,23.20
2017-11-10T11:21:44.873Z,24.10
2017-11-10T11:24:13.026Z,22.27
2017-11-10T11:26:41.589Z,21.37
2017-11-10T11:29:09.592Z,38.00
2017-11-10T11:31:37.707Z,20.57
2017-11-10T11:34:05.735Z,23.07
2017-11-10T11:36:33.776Z,21.27
2017-11-10T11:39:01.792Z,25.90
2017-11-10T11:41:29.893Z,18.73
2017-11-10T11:43:57.972Z,20.30
2017-11-10T11:46:26.008Z,22.10
2017-11-10T11:48:54.028Z,19.77
2017-11-10T11:51:22.182Z,17.20
2017-11-10T11:53:50.240Z,16.33
2017-11-10T11:56:18.290Z,15.87
2017-11-10T11:58:46.297Z,22.10
2017-11-10T12:01:15.057Z,17.23
2017-11-10T12:03:43.078Z,24.63
2017-11-10T12:06:11.048Z,26.93
2017-11-10T12:08:39.057Z,20.77
2017-11-10T12:11:08.224Z,22.90
2017-11-10T12:13:36.181Z,29.60
2017-11-10T12:16:04.404Z,23.10
2017-11-10T12:18:33.252Z,23.50
2017-11-10T12:21:01.193Z,27.97
2017-11-10T12:23:29.229Z,27.57
2017-11-10T12:25:57.336Z,25.00
2017-11-10T12:28:25.301Z,28.47
2017-11-10T12:30:53.234Z,24.30
2017-11-10T12:33:21.260Z,29.87
2017-11-10T12:35:49.436Z,29.77
2017-11-10T12:38:17.509Z,23.40
2017-11-10T12:40:45.482Z,26.90
2017-11-10T12:43:13.593Z,27.10
2017-11-10T12:45:41.668Z,28.50
2017-11-10T12:48:10.353Z,27.70
2017-11-10T12:50:38.428Z,25.83
2017-11-10T12:53:06.391Z,21.33
2017-11-10T12:55:34.403Z,25.97
2017-11-10T12:58:02.440Z,25.33
2017-11-10T13:00:30.508Z,25.47
2017-11-10T13:02:58.507Z,23.77
2017-11-10T13:05:26.546Z,23.20
2017-11-10T13:07:54.923Z,24.07
2017-11-10T13:10:22.925Z,24.87
2017-11-10T13:12:51.000Z,23.03
2017-11-10T13:15:19.052Z,20.70
2017-11-10T13:17:47.552Z,20.83
2017-11-10T13:20:15.530Z,26.73
2017-11-10T13:22:43.715Z,23.97
2017-11-10T13:25:11.906Z,25.77
2017-11-10T13:27:40.325Z,28.10
2017-11-10T13:30:08.435Z,22.83
2017-11-10T13:32:36.412Z,25.33
2017-11-10T13:35:04.420Z,27.73
2017-11-10T13:37:32.453Z,24.37
2017-11-10T13:40:00.574Z,27.47
2017-11-10T13:42:28.736Z,27.53
2017-11-10T13:44:56.783Z,25.73
2017-11-10T13:47:24.775Z,24.03
2017-11-10T13:49:52.796Z,19.77
2017-11-10T13:52:20.784Z,25.70
2017-11-10T13:54:48.970Z,17.93
2017-11-10T13:57:17.039Z,18.90
2017-11-10T13:59:45.189Z,17.40
2017-11-10T14:02:13.251Z,19.83
2017-11-10T14:04:41.318Z,18.63
2017-11-10T14:07:09.327Z,18.30
2017-11-10T14:09:37.401Z,21.80
2017-11-10T14:12:05.353Z,16.40
2017-11-10T14:14:33.813Z,16.80
2017-11-10T14:17:01.824Z,14.10
2017-11-10T14:19:30.177Z,16.10
2017-11-10T14:21:58.217Z,22.20
2017-11-10T14:24:26.289Z,20.17
2017-11-10T14:26:54.301Z,21.83
2017-11-10T14:29:22.371Z,14.07
2017-11-10T14:31:50.448Z,19.77
2017-11-10T14:34:18.621Z,19.07
2017-11-10T14:36:46.996Z,17.43
2017-11-10T14:39:15.048Z,15.07
2017-11-10T14:41:43.424Z,15.87
2017-11-10T14:44:11.622Z,15.97
2017-11-10T14:46:39.813Z,11.30
2017-11-10T14:49:08.127Z,9.33
2017-11-10T14:51:36.235Z,11.50
2017-11-10T14:54:04.296Z,7.50
2017-11-10T14:56:32.258Z,5.37
2017-11-10T14:59:00.209Z,6.47
2017-11-10T15:01:28.117Z,6.70
2017-11-10T15:03:56.127Z,5.50
2017-11-10T15:06:24.077Z,7.83
2017-11-10T15:08:52.078Z,6.40
2017-11-10T15:11:20.040Z,5.53
2017-11-10T15:13:47.987Z,7.50
2017-11-10T15:16:15.995Z,6.80
2017-11-10T15:18:44.084Z,6.03
2017-11-10T15:21:12.048Z,5.60
2017-11-10T15:23:40.466Z,7.30
2017-11-10T15:26:09.693Z,9.00
2017-11-10T15:28:37.830Z,5.57
2017-11-10T15:31:05.768Z,6.93
2017-11-10T15:33:33.743Z,3.83
2017-11-10T15:36:01.705Z,6.23
2017-11-10T15:38:29.675Z,7.53
2017-11-10T15:40:57.641Z,4.57
2017-11-10T15:43:25.637Z,4.43
2017-11-10T15:45:54.610Z,7.20
2017-11-10T15:48:22.546Z,4.63
2017-11-10T15:50:50.480Z,7.50
2017-11-10T15:53:18.480Z,3.53
2017-11-10T15:55:46.434Z,3.07
2017-11-10T15:58:14.740Z,6.40
2017-11-10T16:00:42.841Z,5.93
2017-11-10T16:03:10.784Z,7.83
2017-11-10T16:05:38.749Z,6.60
2017-11-10T16:08:06.769Z,3.50
2017-11-10T16:10:34.737Z,10.70
2017-11-10T16:13:02.656Z,7.40
2017-11-10T16:15:30.595Z,6.47
2017-11-10T16:17:58.556Z,3.53
2017-11-10T16:20:27.731Z,8.47
2017-11-10T16:22:55.725Z,5.93
2017-11-10T16:25:24.071Z,9.43
2017-11-10T16:27:52.531Z,7.93
2017-11-10T16:30:20.471Z,5.73
2017-11-10T16:32:48.384Z,7.73
2017-11-10T16:35:18.403Z,6.83
2017-11-10T16:37:46.587Z,6.60
2017-11-10T16:40:14.575Z,4.10
2017-11-10T16:42:42.504Z,5.07
2017-11-10T16:45:10.495Z,4.83
2017-11-10T16:47:38.442Z,7.07
2017-11-10T16:50:06.514Z,7.80
2017-11-10T16:52:34.632Z,8.23
2017-11-10T16:55:02.600Z,10.40
2017-11-10T16:57:30.608Z,12.70
2017-11-10T16:59:58.575Z,5.00
2017-11-10T17:02:26.599Z,12.70
2017-11-10T17:04:54.630Z,7.30
2017-11-10T17:07:22.639Z,8.23
2017-11-10T17:09:50.766Z,7.87
2017-11-10T17:12:18.940Z,7.70
2017-11-10T17:14:47.236Z,8.83
2017-11-10T17:17:15.178Z,10.63
2017-11-10T17:19:43.172Z,14.20
2017-11-10T17:22:11.188Z,9.10
2017-11-10T17:24:40.237Z,10.57
2017-11-10T17:27:08.293Z,8.93
2017-11-10T17:29:36.324Z,6.07
2017-11-10T17:32:10.230Z,7.47
2017-11-10T17:34:43.936Z,12.13
2017-11-10T17:37:17.477Z,5.93
2017-11-10T17:39:51.173Z,11.40
2017-11-10T17:42:25.460Z,8.60
2017-11-10T17:44:59.317Z,7.13
2017-11-10T17:47:34.010Z,6.50
2017-11-10T17:50:07.774Z,10.93
2017-11-10T17:52:41.720Z,13.53
2017-11-10T17:55:15.390Z,9.97
2017-11-10T17:57:49.028Z,23.73
2017-11-10T18:00:22.632Z,23.73
2017-11-10T18:02:56.320Z,8.33
2017-11-10T18:05:30.375Z,13.03
2017-11-10T18:08:04.585Z,12.53
2017-11-10T18:10:39.956Z,11.60
2017-11-10T18:13:13.536Z,7.63
2017-11-10T18:15:47.761Z,10.53
2017-11-10T18:18:21.355Z,7.70
2017-11-10T18:20:55.060Z,10.70
2017-11-10T18:23:28.757Z,12.67
2017-11-10T18:26:02.742Z,10.57
2017-11-10T18:28:36.529Z,7.17
2017-11-10T18:31:10.039Z,7.60
2017-11-10T18:33:44.470Z,12.43
2017-11-10T18:36:19.217Z,11.50
2017-11-10T18:38:52.788Z,8.87
2017-11-10T18:41:26.554Z,13.07
2017-11-10T18:44:00.145Z,11.90
2017-11-10T18:46:34.070Z,12.90
2017-11-10T18:49:13.204Z,8.80
2017-11-10T18:51:49.563Z,9.63
2017-11-10T18:54:23.448Z,6.90
2017-11-10T18:56:58.082Z,6.27
2017-11-10T18:59:31.603Z,9.73
2017-11-10T19:02:05.288Z,6.83
2017-11-10T19:04:39.152Z,8.83
2017-11-10T19:07:12.817Z,8.10
2017-11-10T19:09:46.564Z,4.03
2017-11-10T19:12:20.654Z,6.53
2017-11-10T19:14:54.929Z,5.50
2017-11-10T19:17:28.517Z,9.67
2017-11-10T19:20:02.030Z,8.63
2017-11-10T19:22:35.587Z,9.90
2017-11-10T19:25:09.231Z,12.70
2017-11-10T19:27:38.078Z,7.73
2017-11-10T19:30:06.045Z,7.23
2017-11-10T19:32:34.215Z,3.77
2017-11-10T19:35:02.379Z,4.97
2017-11-10T19:37:30.366Z,5.03
2017-11-10T19:40:06.160Z,5.10
2017-11-10T19:42:34.198Z,4.63
2017-11-10T19:45:02.236Z,4.87
2017-11-10T19:47:30.230Z,4.63
2017-11-10T19:49:58.307Z,8.00
2017-11-10T19:52:26.374Z,4.40
2017-11-10T19:54:54.966Z,5.70
2017-11-10T19:57:22.937Z,5.50
2017-11-10T19:59:50.964Z,4.20
2017-11-10T20:02:19.063Z,3.33
2017-11-10T20:04:47.108Z,7.67
2017-11-10T20:07:16.753Z,4.77
2017-11-10T20:09:44.723Z,5.03
2017-11-10T20:12:12.729Z,5.30
2017-11-10T20:14:40.660Z,4.93
2017-11-10T20:17:08.861Z,4.10
2017-11-10T20:19:36.881Z,3.53
2017-11-10T20:22:04.892Z,5.87
2017-11-10T20:24:32.884Z,4.00
2017-11-10T20:27:01.605Z,7.17
2017-11-10T20:29:29.606Z,6.10
2017-11-10T20:31:57.569Z,6.60
2017-11-10T20:34:26.401Z,6.93
2017-11-10T20:36:54.389Z,3.80
2017-11-10T20:39:22.358Z,6.20
2017-11-10T20:41:50.295Z,4.80
2017-11-10T20:44:19.028Z,3.80
2017-11-10T20:46:47.028Z,2.33
2017-11-10T20:49:15.218Z,5.63
2017-11-10T20:51:43.486Z,5.43
2017-11-10T20:54:11.479Z,3.27
2017-11-10T20:56:39.445Z,7.00
2017-11-10T20:59:07.447Z,7.47
2017-11-10T21:01:35.444Z,7.33
2017-11-10T21:04:03.434Z,3.90
2017-11-10T21:06:31.412Z,2.30
2017-11-10T21:08:59.422Z,5.10
2017-11-10T21:11:27.392Z,3.67
2017-11-10T21:13:55.422Z,5.60
2017-11-10T21:16:23.737Z,4.90
2017-11-10T21:18:51.723Z,5.43
2017-11-10T21:21:19.660Z,2.00
2017-11-10T21:23:47.608Z,4.33
2017-11-10T21:26:15.556Z,4.77
2017-11-10T21:28:43.582Z,4.60
2017-11-10T21:31:11.516Z,5.63
2017-11-10T21:33:39.935Z,8.23
2017-11-10T21:36:07.924Z,3.00
2017-11-10T21:38:36.169Z,7.50
2017-11-10T21:41:04.143Z,2.73
2017-11-10T21:43:32.080Z,5.10
2017-11-10T21:46:00.079Z,13.00
2017-11-10T21:48:28.027Z,5.07
2017-11-10T21:50:55.988Z,3.70
2017-11-10T21:53:23.899Z,6.40
2017-11-10T21:55:51.932Z,2.83
2017-11-10T21:58:19.930Z,4.80
2017-11-10T22:00:48.000Z,6.23
2017-11-10T22:03:16.039Z,5.73
2017-11-10T22:05:43.986Z,33.90
2017-11-10T22:08:12.545Z,20.37
2017-11-10T22:10:40.534Z,9.70
2017-11-10T22:13:08.523Z,4.20
2017-11-10T22:15:36.471Z,6.33
2017-11-10T22:18:04.555Z,4.77
2017-11-10T22:20:32.531Z,4.40
2017-11-10T22:23:00.452Z,4.97
2017-11-10T22:25:28.428Z,7.10
2017-11-10T22:27:56.485Z,3.70
2017-11-10T22:30:24.531Z,7.20
2017-11-10T22:32:52.529Z,6.13
2017-11-10T22:35:20.481Z,4.40
2017-11-10T22:37:48.482Z,4.83
2017-11-10T22:40:16.414Z,2.03
2017-11-10T22:42:44.339Z,4.67
2017-11-10T22:45:12.274Z,4.47
2017-11-10T22:47:40.373Z,3.80
2017-11-10T22:50:08.350Z,4.13
2017-11-10T22:52:36.330Z,4.60
2017-11-10T22:55:04.249Z,4.80
2017-11-10T22:57:32.206Z,3.33
2017-11-10T23:00:00.121Z,3.27
2017-11-10T23:02:28.092Z,2.40
2017-11-10T23:04:56.028Z,1.83
2017-11-10T23:07:23.945Z,3.10
2017-11-10T23:09:52.930Z,2.03
2017-11-10T23:12:20.871Z,3.13
2017-11-10T23:14:48.860Z,2.47
2017-11-10T23:17:16.822Z,3.73
2017-11-10T23:19:44.843Z,5.10
2017-11-10T23:22:12.785Z,2.60
2017-11-10T23:24:40.800Z,4.73
2017-11-10T23:27:08.802Z,2.90
2017-11-10T23:29:37.572Z,2.87
2017-11-10T23:32:05.551Z,4.10
2017-11-10T23:34:33.501Z,4.27
2017-11-10T23:37:01.462Z,5.03
2017-11-10T23:39:29.409Z,3.13
2017-11-10T23:41:57.527Z,2.03
2017-11-10T23:44:25.454Z,6.43
2017-11-10T23:46:53.655Z,2.87
2017-11-10T23:49:21.583Z,5.70
2017-11-10T23:51:49.656Z,5.73
2017-11-10T23:54:17.595Z,2.13
2017-11-10T23:56:45.600Z,3.73
2017-11-10T23:59:13.608Z,3.43
